Elvaston, Illinois
Current Conditions -  °F | °C
As of 9:15 AM on Sunday 21 Dec 2014 (Local Time) from KEOK Reporting Station
Overcast Overcast  
Wind Chill: 33°   Ceiling: 2300
Heat Index: 39°   Visibility: 10mi
Dew Point: 36°   Wind: 9mph
Humidity: 87%   Direction: 150°SSE
Pressure: 30.1"   Gusts: NA
Location:  40.4°N, 91.25°W
Report Text: KEOK 211515Z AUTO 15008KT 10SM OVC023 04/02 A3010 RMK AO2
Loading
Personal Weather Stations






























Interactive Weather Map New forecast layout! Learn more

10-Day Weather Forecast

Advertisements
Track Severe Weather on mobile